Time;durP1;ratioP1;P1;durP2;ratioP2;P2;SDS_P1;SDS_P2;PMS_P1;PMS_P2;Temp;Humidity;BMP_temperature;BMP_pressure;BME280_temperature;BME280_humidity;BME280_pressure;Samples;Min_cycle;Max_cycle;Signal;HPM_P1;HPM_P2
2022/10/28 00:00:23;;;;;;;;;4.00;4.00;;;;;21.99;61.57;-19793.44;4995811;27;45330;-80
2022/10/28 00:02:49;;;;;;;;;4.33;4.33;;;;;21.96;61.11;-19792.63;4995820;27;45349;-80
2022/10/28 00:05:15;;;;;;;;;5.75;4.50;;;;;21.97;61.00;-19792.91;4994838;28;45426;-80
2022/10/28 00:07:41;;;;;;;;;4.00;4.00;;;;;21.72;61.39;-19786.50;4995570;27;46668;-73
2022/10/28 00:10:07;;;;;;;;;6.33;4.00;;;;;21.93;61.77;-19792.09;4980156;27;45945;-72
2022/10/28 00:12:37;;;;;;;;;4.25;4.25;;;;;21.93;61.49;-19791.97;4994657;27;45385;-72
2022/10/28 00:15:03;;;;;;;;;6.33;3.00;;;;;21.89;61.41;-19790.91;4995982;27;45252;-72
2022/10/28 00:17:29;;;;;;;;;6.00;4.25;;;;;21.87;61.43;-19790.50;5003007;28;46334;-73
2022/10/28 00:19:54;;;;;;;;;6.00;6.00;;;;;21.85;61.34;-19789.97;4997285;27;45423;-72
2022/10/28 00:22:20;;;;;;;;;4.00;4.00;;;;;21.64;62.19;-19784.53;4995727;27;45424;-72
2022/10/28 00:24:45;;;;;;;;;4.33;4.33;;;;;21.85;62.04;-19789.97;4994837;27;45484;-72
2022/10/28 00:27:11;;;;;;;;;6.33;5.00;;;;;21.79;62.07;-19788.25;5002270;27;46253;-72
2022/10/28 00:29:36;;;;;;;;;4.00;3.00;;;;;21.83;62.07;-19789.44;4980775;28;45413;-72
2022/10/28 00:32:02;;;;;;;;;4.00;4.00;;;;;21.74;61.87;-19787.03;4995220;27;45396;-72
2022/10/28 00:34:27;;;;;;;;;3.67;3.33;;;;;21.79;61.68;-19788.38;4978167;28;45555;-73
2022/10/28 00:36:53;;;;;;;;;4.00;4.00;;;;;21.73;62.21;-19786.66;4995625;27;45569;-72
2022/10/28 00:39:23;;;;;;;;;4.00;4.00;;;;;21.77;62.27;-19787.72;4995435;27;45481;-72
2022/10/28 00:41:54;;;;;;;;;5.67;4.00;;;;;21.78;62.40;-19788.13;4995137;27;46110;-72
2022/10/28 00:44:56;;;;;;;;;5.00;5.00;;;;;21.78;61.78;-19787.97;4978084;28;45444;-72
2022/10/28 00:47:34;;;;;;;;;6.67;4.00;;;;;21.78;61.73;-19788.13;4997295;27;45372;-72
2022/10/28 00:50:31;;;;;;;;;8.00;5.00;;;;;21.68;62.34;-19785.44;4995215;27;45418;-72
2022/10/28 00:53:03;;;;;;;;;7.33;5.00;;;;;21.68;62.23;-19785.59;4998599;28;45298;-70
2022/10/28 00:55:31;;;;;;;;;5.50;5.00;;;;;21.75;62.36;-19787.31;4995462;27;46617;-70
2022/10/28 00:57:58;;;;;;;;;5.00;5.00;;;;;21.73;62.60;-19786.78;4996467;27;45474;-70
2022/10/28 01:00:25;;;;;;;;;5.00;5.00;;;;;21.71;62.35;-19786.25;4994971;27;45447;-70
2022/10/28 01:02:51;;;;;;;;;4.75;4.00;;;;;21.71;62.14;-19786.38;4994990;28;45336;-71
2022/10/28 01:05:21;;;;;;;;;3.25;3.25;;;;;21.70;62.92;-19785.97;4975891;28;45484;-70
2022/10/28 01:07:48;;;;;;;;;4.33;4.33;;;;;21.70;62.40;-19785.97;4995824;27;47109;-71
2022/10/28 01:10:15;;;;;;;;;3.75;3.25;;;;;21.58;62.29;-19782.78;4998904;28;45812;-70
2022/10/28 01:12:56;;;;;;;;;4.00;4.00;;;;;21.69;62.26;-19785.72;4984115;28;45848;-71
2022/10/28 01:15:32;;;;;;;;;2.00;1.25;;;;;21.64;62.40;-19784.38;5003010;27;45293;-70
2022/10/28 01:18:26;;;;;;;;;4.50;4.00;;;;;21.62;62.98;-19784.00;4993545;27;47107;-70
2022/10/28 01:21:07;;;;;;;;;4.50;3.50;;;;;21.60;62.62;-19783.44;4999086;28;45281;-70
2022/10/28 01:23:38;;;;;;;;;4.75;3.25;;;;;21.60;62.96;-19783.44;4986260;27;45523;-70
2022/10/28 01:26:30;;;;;;;;;4.00;4.00;;;;;21.58;63.03;-19782.91;4992706;27;45575;-70
2022/10/28 01:28:58;;;;;;;;;6.25;4.25;;;;;21.60;63.18;-19783.31;5002462;27;46403;-70
2022/10/28 01:31:44;;;;;;;;;4.75;4.75;;;;;21.58;63.18;-19782.91;4997760;27;45331;-70
2022/10/28 01:34:30;;;;;;;;;9.25;4.25;;;;;21.57;62.54;-19782.53;4995698;28;45470;-71
2022/10/28 01:37:18;;;;;;;;;5.75;5.00;;;;;21.56;62.76;-19782.25;4993000;27;45405;-70
2022/10/28 01:40:00;;;;;;;;;4.50;4.00;;;;;21.55;63.34;-19782.13;4994182;28;45502;-70
2022/10/28 01:42:31;;;;;;;;;6.25;5.00;;;;;21.53;63.36;-19781.59;5001136;27;45386;-70
2022/10/28 01:45:21;;;;;;;;;5.00;4.50;;;;;21.53;63.20;-19781.47;5005911;27;45416;-70
2022/10/28 01:48:11;;;;;;;;;4.50;3.25;;;;;21.32;62.78;-19776.00;4995649;27;45459;-70
2022/10/28 01:51:02;;;;;;;;;3.75;3.75;;;;;21.48;63.61;-19780.25;4996812;27;47231;-70
2022/10/28 01:53:32;;;;;;;;;3.00;3.00;;;;;21.43;63.42;-19779.06;4976739;28;45294;-70
2022/10/28 01:56:02;;;;;;;;;2.50;2.25;;;;;21.48;63.16;-19780.25;4994517;28;45306;-72
2022/10/28 01:58:30;;;;;;;;;3.00;2.00;;;;;21.32;63.36;-19776.00;4993623;27;45517;-72
2022/10/28 02:01:15;;;;;;;;;3.75;3.75;;;;;21.41;63.04;-19778.41;4991513;27;46246;-72
2022/10/28 02:03:40;;;;;;;;;3.00;3.00;;;;;21.45;63.59;-19779.59;4968715;28;45436;-72
2022/10/28 02:06:16;;;;;;;;;4.00;4.00;;;;;21.37;63.64;-19777.31;4985213;27;45440;-82
2022/10/28 02:09:24;;;;;;;;;6.00;4.50;;;;;21.32;63.13;-19776.13;4996528;28;45469;-78
2022/10/28 02:12:11;;;;;;;;;6.00;5.00;;;;;21.43;63.51;-19779.06;4989748;27;47374;-82
2022/10/28 02:14:41;;;;;;;;;4.25;4.25;;;;;21.44;63.13;-19779.19;4987294;27;45699;-82
2022/10/28 02:17:19;;;;;;;;;6.33;6.00;;;;;21.41;63.48;-19778.41;4980675;28;45656;-80
2022/10/28 02:20:00;;;;;;;;;3.67;3.33;;;;;21.41;63.76;-19778.53;4996097;27;45672;-83
2022/10/28 02:22:31;;;;;;;;;6.00;3.67;;;;;21.39;63.39;-19777.84;4995376;27;46224;-82
2022/10/28 02:25:18;;;;;;;;;6.00;4.67;;;;;21.38;63.64;-19777.72;4987165;27;45574;-83
2022/10/28 02:27:57;;;;;;;;;5.00;3.50;;;;;21.25;63.60;-19774.25;4979462;28;45683;-82
2022/10/28 02:30:32;;;;;;;;;4.00;4.00;;;;;21.19;63.83;-19772.66;4983911;27;45425;-82
2022/10/28 02:33:02;;;;;;;;;5.67;4.33;;;;;21.32;63.91;-19776.13;4996201;27;47299;-83
2022/10/28 02:35:37;;;;;;;;;4.00;4.00;;;;;21.32;64.02;-19776.13;4989867;28;45528;-83
2022/10/28 02:38:09;;;;;;;;;5.33;4.33;;;;;21.32;64.08;-19776.13;5015150;27;45551;-82
2022/10/28 02:40:37;;;;;;;;;5.25;4.00;;;;;21.30;64.24;-19775.59;4996539;27;45373;-82
2022/10/28 02:43:08;;;;;;;;;4.25;2.75;;;;;21.22;64.22;-19773.47;5002421;28;45405;-82
2022/10/28 02:45:39;;;;;;;;;6.00;6.00;;;;;21.29;64.18;-19775.47;4974425;28;45857;-82
2022/10/28 02:48:24;;;;;;;;;3.25;2.00;;;;;21.23;64.05;-19773.88;4986710;27;45353;-82
2022/10/28 02:50:59;;;;;;;;;5.33;5.00;;;;;21.22;63.60;-19773.47;4984507;27;45555;-82
2022/10/28 02:53:31;;;;;;;;;4.00;4.00;;;;;21.11;63.56;-19770.66;5008522;27;45459;-82
2022/10/28 02:55:59;;;;;;;;;3.75;3.75;;;;;21.11;64.17;-19770.66;4996619;27;47092;-82
2022/10/28 02:58:25;;;;;;;;;3.50;3.50;;;;;21.26;64.29;-19774.53;4999618;27;45345;-82
2022/10/28 03:00:50;;;;;;;;;3.00;3.00;;;;;21.24;64.28;-19774.13;4992493;27;45453;-82
2022/10/28 03:03:16;;;;;;;;;3.75;3.75;;;;;21.18;63.84;-19772.41;4987048;27;46235;-82
2022/10/28 03:05:42;;;;;;;;;3.00;3.00;;;;;21.25;64.09;-19774.41;4992558;27;45497;-82
2022/10/28 03:08:07;;;;;;;;;8.00;4.00;;;;;21.26;64.01;-19774.53;5026664;27;45449;-82
2022/10/28 03:10:33;;;;;;;;;7.33;5.00;;;;;21.09;63.88;-19770.13;4996754;27;45363;-82
2022/10/28 03:12:59;;;;;;;;;4.00;4.00;;;;;21.22;64.21;-19773.59;4993986;28;47321;-82
2022/10/28 03:15:24;;;;;;;;;3.00;3.00;;;;;21.23;64.15;-19773.72;4996480;27;45419;-82
2022/10/28 03:17:49;;;;;;;;;4.50;4.00;;;;;21.16;64.29;-19772.00;4996580;27;45702;-82
2022/10/28 03:20:15;;;;;;;;;3.00;2.50;;;;;21.21;63.43;-19773.34;5018588;27;45524;-82
2022/10/28 03:22:43;;;;;;;;;7.00;4.00;;;;;21.20;64.10;-19773.06;4996237;27;45573;-82
2022/10/28 03:25:09;;;;;;;;;5.33;4.33;;;;;20.99;64.11;-19767.59;5015148;27;45511;-82
2022/10/28 03:27:38;;;;;;;;;5.25;3.50;;;;;20.98;64.16;-19767.34;5021498;27;45380;-82
2022/10/28 03:30:03;;;;;;;;;4.00;3.33;;;;;21.07;63.70;-19769.75;5003641;27;45446;-82
2022/10/28 03:32:29;;;;;;;;;4.00;4.00;;;;;21.18;64.27;-19772.41;4987545;27;46072;-82
2022/10/28 03:34:54;;;;;;;;;8.00;5.00;;;;;21.17;64.15;-19772.13;5021557;27;45564;-82
2022/10/28 03:37:19;;;;;;;;;4.67;3.00;;;;;21.13;63.81;-19771.06;4982728;28;45803;-82
2022/10/28 03:39:45;;;;;;;;;4.50;4.50;;;;;21.16;63.92;-19771.88;4984741;27;45521;-82
2022/10/28 03:42:11;;;;;;;;;7.50;5.50;;;;;21.15;64.33;-19771.59;4978384;28;47297;-82
2022/10/28 03:44:36;;;;;;;;;0.00;0.00;;;;;21.12;64.31;-19770.94;4988693;28;45576;-82
2022/10/28 03:47:02;;;;;;;;;4.00;4.00;;;;;21.11;64.47;-19770.53;5000726;27;45457;-82
2022/10/28 03:49:28;;;;;;;;;6.33;5.00;;;;;21.08;64.14;-19769.88;5006878;27;45351;-82
2022/10/28 03:51:53;;;;;;;;;5.33;4.00;;;;;21.07;64.18;-19769.59;5000865;27;45345;-82
2022/10/28 03:54:18;;;;;;;;;2.25;2.25;;;;;21.05;64.54;-19769.06;4981428;28;45579;-82
2022/10/28 03:56:44;;;;;;;;;4.00;4.00;;;;;20.91;64.74;-19765.47;5004789;27;45528;-82
2022/10/28 03:59:09;;;;;;;;;7.00;4.00;;;;;21.00;64.68;-19767.75;4967792;28;45658;-82
2022/10/28 04:01:35;;;;;;;;;7.33;4.33;;;;;20.93;64.22;-19766.00;5000860;27;47043;-82
2022/10/28 04:04:00;;;;;;;;;4.33;3.00;;;;;20.74;64.39;-19760.94;4990742;27;45530;-83
2022/10/28 04:06:26;;;;;;;;;4.00;4.00;;;;;20.85;64.35;-19763.88;4997296;27;45499;-72
2022/10/28 04:08:52;;;;;;;;;6.33;5.00;;;;;20.89;64.38;-19764.94;5001481;27;45383;-72
2022/10/28 04:11:17;;;;;;;;;5.67;5.00;;;;;20.64;64.82;-19758.53;4999060;27;45320;-72
2022/10/28 04:13:43;;;;;;;;;4.25;4.00;;;;;20.90;64.67;-19765.06;5004776;27;45558;-72
2022/10/28 04:16:09;;;;;;;;;6.50;5.75;;;;;20.79;64.52;-19762.28;4980380;28;45432;-72
2022/10/28 04:18:34;;;;;;;;;4.75;3.75;;;;;20.85;64.50;-19763.88;4988828;28;45354;-72
2022/10/28 04:21:01;;;;;;;;;5.00;4.00;;;;;20.80;65.14;-19762.53;4998781;27;46119;-72
2022/10/28 04:23:26;;;;;;;;;4.00;4.00;;;;;20.70;64.52;-19759.88;5021523;27;45448;-72
2022/10/28 04:25:53;;;;;;;;;5.25;4.75;;;;;20.62;64.73;-19758.00;4991228;27;45457;-72
2022/10/28 04:28:19;;;;;;;;;3.75;3.75;;;;;20.79;65.05;-19762.28;4969491;28;45505;-72
2022/10/28 04:30:48;;;;;;;;;5.00;5.00;;;;;20.63;64.31;-19758.16;5002160;27;45648;-72
2022/10/28 04:33:15;;;;;;;;;6.50;4.50;;;;;20.76;64.57;-19761.59;4984957;27;45443;-72
2022/10/28 04:35:44;;;;;;;;;4.50;4.50;;;;;20.77;64.82;-19761.88;4989385;28;45538;-72
2022/10/28 04:38:10;;;;;;;;;4.00;4.00;;;;;20.78;64.06;-19762.00;4992396;27;45630;-72
2022/10/28 04:40:36;;;;;;;;;4.50;4.50;;;;;20.60;64.75;-19757.34;4993315;27;46021;-72
2022/10/28 04:43:01;;;;;;;;;4.25;3.25;;;;;20.78;64.12;-19762.16;4992479;27;46488;-72
2022/10/28 04:45:27;;;;;;;;;5.50;4.50;;;;;20.78;64.40;-19762.00;4986052;28;45544;-72
2022/10/28 04:47:58;;;;;;;;;6.50;5.00;;;;;20.80;63.85;-19762.69;5005736;27;45286;-72
2022/10/28 04:50:26;;;;;;;;;4.25;4.00;;;;;20.73;64.12;-19760.69;4996667;27;45703;-72
2022/10/28 04:52:51;;;;;;;;;4.25;4.25;;;;;20.75;63.78;-19761.22;4995156;27;45457;-72
2022/10/28 04:55:18;;;;;;;;;3.33;3.33;;;;;20.80;63.59;-19762.53;4998754;27;45921;-72
2022/10/28 04:57:51;;;;;;;;;5.33;4.00;;;;;20.80;63.43;-19762.69;4997845;27;46292;-72
2022/10/28 05:00:17;;;;;;;;;7.75;4.00;;;;;20.68;63.95;-19759.34;4997092;27;46594;-72
2022/10/28 05:02:42;;;;;;;;;5.00;3.00;;;;;20.63;63.81;-19758.28;4988929;27;45392;-72
2022/10/28 05:05:07;;;;;;;;;4.00;4.00;;;;;20.82;63.28;-19763.22;5002969;27;45793;-72
2022/10/28 05:07:33;;;;;;;;;3.00;3.00;;;;;20.58;63.36;-19756.94;5001504;27;45452;-82
2022/10/28 05:09:58;;;;;;;;;6.00;5.00;;;;;20.81;63.36;-19762.81;4976143;28;45535;-82
2022/10/28 05:12:24;;;;;;;;;5.67;4.00;;;;;20.75;63.60;-19761.34;4984120;27;54494;-82
2022/10/28 05:14:49;;;;;;;;;5.33;4.00;;;;;20.80;62.98;-19762.53;4973459;28;45442;-82
2022/10/28 05:17:14;;;;;;;;;4.00;4.00;;;;;20.66;63.03;-19759.06;4983067;27;45563;-82
2022/10/28 05:19:41;;;;;;;;;3.50;3.50;;;;;20.80;63.23;-19762.69;4981693;28;45547;-82
2022/10/28 05:22:06;;;;;;;;;2.33;2.33;;;;;20.84;63.36;-19763.63;4990123;28;45544;-82
2022/10/28 05:24:31;;;;;;;;;4.33;2.67;;;;;20.86;62.77;-19764.13;4986145;27;45477;-82
2022/10/28 05:26:59;;;;;;;;;4.00;4.00;;;;;20.87;62.99;-19764.41;4969370;28;45387;-83
2022/10/28 05:29:24;;;;;;;;;3.75;2.25;;;;;20.85;63.11;-19764.00;4984547;27;47317;-82
2022/10/28 05:31:50;;;;;;;;;6.50;3.75;;;;;20.85;62.76;-19763.88;4995926;28;45451;-82
2022/10/28 05:34:15;;;;;;;;;4.50;4.50;;;;;20.77;62.46;-19761.88;4997881;27;46471;-82
2022/10/28 05:36:40;;;;;;;;;6.00;4.50;;;;;20.86;62.09;-19764.13;4974687;27;45353;-82
2022/10/28 05:39:05;;;;;;;;;4.00;4.00;;;;;20.85;62.53;-19764.00;4951564;28;46500;-82
2022/10/28 05:41:31;;;;;;;;;5.00;3.00;;;;;20.83;62.65;-19763.34;4980887;28;48334;-82
2022/10/28 05:43:56;;;;;;;;;6.33;3.67;;;;;20.83;62.30;-19763.47;4966545;28;45905;-82
2022/10/28 05:46:21;;;;;;;;;8.67;4.00;;;;;20.82;62.53;-19763.06;4994291;27;45638;-82
2022/10/28 05:48:47;;;;;;;;;3.33;3.33;;;;;20.81;62.51;-19762.94;4994555;28;45797;-82
2022/10/28 05:51:13;;;;;;;;;4.67;4.00;;;;;20.76;62.00;-19761.59;5001332;28;47490;-82
2022/10/28 05:53:40;;;;;;;;;4.00;4.00;;;;;20.75;62.52;-19761.34;4990897;28;45380;-82
2022/10/28 05:56:06;;;;;;;;;4.00;4.00;;;;;20.54;62.10;-19755.88;4979244;28;45484;-82
2022/10/28 05:58:31;;;;;;;;;3.67;3.00;;;;;20.72;62.12;-19760.53;4984022;27;45470;-82
2022/10/28 06:00:57;;;;;;;;;4.75;4.00;;;;;20.75;61.95;-19761.22;4992893;28;45611;-82
2022/10/28 06:03:22;;;;;;;;;4.00;4.00;;;;;20.72;62.03;-19760.53;5000963;27;45503;-82
2022/10/28 06:05:47;;;;;;;;;9.00;4.33;;;;;20.61;61.84;-19757.63;4980314;28;45594;-72
2022/10/28 06:08:13;;;;;;;;;5.00;4.00;;;;;20.71;62.08;-19760.28;4987720;27;45799;-72
2022/10/28 06:10:39;;;;;;;;;5.00;4.00;;;;;20.71;61.89;-19760.28;4982891;27;45500;-72
2022/10/28 06:13:06;;;;;;;;;4.67;4.00;;;;;20.69;62.12;-19759.63;4999134;27;45438;-72
2022/10/28 06:15:31;;;;;;;;;5.67;4.00;;;;;20.67;62.26;-19759.22;5004288;27;45428;-72
2022/10/28 06:17:57;;;;;;;;;6.00;5.00;;;;;20.63;62.28;-19758.16;4982375;28;45455;-70
2022/10/28 06:20:22;;;;;;;;;8.00;5.00;;;;;20.63;62.35;-19758.28;4985018;27;45507;-70
2022/10/28 06:22:52;;;;;;;;;5.33;3.00;;;;;20.70;62.01;-19759.88;4984154;28;45541;-70
2022/10/28 06:25:19;;;;;;;;;4.67;4.67;;;;;20.70;61.71;-19760.00;4987883;27;45557;-70
2022/10/28 06:27:44;;;;;;;;;5.00;4.00;;;;;20.43;62.30;-19753.06;4969435;27;48152;-70
2022/10/28 06:30:11;;;;;;;;;4.00;4.00;;;;;20.66;62.41;-19758.94;4988856;27;45458;-70
2022/10/28 06:32:36;;;;;;;;;4.33;4.33;;;;;20.55;61.93;-19756.13;4989834;27;45384;-70
2022/10/28 06:35:02;;;;;;;;;3.67;2.00;;;;;20.59;62.12;-19757.09;4956827;27;46455;-70
2022/10/28 06:37:27;;;;;;;;;5.33;4.33;;;;;20.62;62.33;-19758.00;4985777;27;47228;-70
2022/10/28 06:39:53;;;;;;;;;4.33;3.33;;;;;20.53;62.40;-19755.47;5003110;27;46094;-70
2022/10/28 06:42:19;;;;;;;;;4.00;3.67;;;;;20.32;62.00;-19750.16;4988861;27;45794;-70
2022/10/28 06:44:45;;;;;;;;;5.67;3.00;;;;;20.51;61.99;-19754.94;4985741;27;46641;-72
2022/10/28 06:47:10;;;;;;;;;4.00;4.00;;;;;20.54;61.97;-19755.88;4983138;28;46998;-72
2022/10/28 06:49:35;;;;;;;;;5.00;3.00;;;;;20.55;61.80;-19756.13;4973897;28;45610;-72
2022/10/28 06:52:01;;;;;;;;;6.00;3.75;;;;;20.36;61.83;-19751.22;4993720;27;45474;-72
2022/10/28 06:54:26;;;;;;;;;6.00;4.00;;;;;20.34;62.14;-19750.69;4979252;27;45629;-72
2022/10/28 06:56:52;;;;;;;;;5.00;4.00;;;;;20.54;61.89;-19755.75;4973900;27;48571;-72
2022/10/28 06:59:17;;;;;;;;;5.33;3.00;;;;;20.40;61.66;-19752.16;5005803;27;45520;-72
2022/10/28 07:01:42;;;;;;;;;7.67;3.67;;;;;20.55;61.69;-19756.00;5006030;27;45725;-72
2022/10/28 07:04:12;;;;;;;;;5.00;5.00;;;;;20.55;61.72;-19756.00;4960217;28;45674;-72
2022/10/28 07:06:38;;;;;;;;;3.33;3.00;;;;;20.54;62.13;-19755.88;4997955;27;45540;-72
2022/10/28 07:09:03;;;;;;;;;6.33;6.00;;;;;20.53;61.77;-19755.47;4999907;27;45548;-73
2022/10/28 07:11:29;;;;;;;;;4.67;3.33;;;;;20.54;62.15;-19755.75;4987545;28;45444;-72
2022/10/28 07:13:54;;;;;;;;;6.00;4.00;;;;;20.56;62.27;-19756.28;4997377;27;45473;-72
2022/10/28 07:16:20;;;;;;;;;7.00;4.00;;;;;20.57;62.13;-19756.53;5001913;27;47144;-72
2022/10/28 07:18:45;;;;;;;;;5.33;4.00;;;;;20.56;61.54;-19756.41;4996661;27;45498;-72
2022/10/28 07:21:11;;;;;;;;;2.00;2.00;;;;;20.58;61.98;-19756.81;4998921;27;45489;-72
2022/10/28 07:23:36;;;;;;;;;4.33;4.33;;;;;20.59;61.60;-19757.09;4995986;27;45677;-72
2022/10/28 07:26:01;;;;;;;;;6.00;4.33;;;;;20.61;61.69;-19757.63;4985521;27;46987;-73
2022/10/28 07:28:27;;;;;;;;;6.33;5.00;;;;;20.69;61.33;-19759.75;4970218;28;46270;-72
2022/10/28 07:30:53;;;;;;;;;3.33;3.33;;;;;20.79;60.92;-19762.28;4990637;27;45312;-72
2022/10/28 07:33:19;;;;;;;;;5.25;3.50;;;;;20.74;61.22;-19760.94;4995023;27;45371;-72
2022/10/28 07:35:44;;;;;;;;;5.00;4.00;;;;;20.74;61.04;-19761.06;4983640;28;45941;-72
2022/10/28 07:38:10;;;;;;;;;4.00;4.00;;;;;20.95;60.56;-19766.53;4995648;27;45389;-72
2022/10/28 07:40:36;;;;;;;;;7.25;4.50;;;;;20.99;60.84;-19767.47;4989719;27;45370;-73
2022/10/28 07:43:01;;;;;;;;;6.67;6.00;;;;;20.86;60.09;-19764.13;4986529;27;47200;-72
2022/10/28 07:45:26;;;;;;;;;2.50;2.50;;;;;21.12;60.33;-19770.94;5051825;28;45296;-73
2022/10/28 07:47:53;;;;;;;;;4.25;4.25;;;;;21.16;59.44;-19771.88;4986381;27;45270;-73
2022/10/28 07:50:18;;;;;;;;;4.00;4.00;;;;;21.17;60.01;-19772.13;4995811;27;45281;-72
2022/10/28 07:52:44;;;;;;;;;6.00;4.00;;;;;21.30;59.70;-19775.59;4995691;27;45595;-72
2022/10/28 07:55:10;;;;;;;;;5.25;3.50;;;;;21.33;59.18;-19776.25;4995968;27;45295;-72
2022/10/28 07:57:36;;;;;;;;;5.50;4.00;;;;;21.32;59.02;-19776.13;4995809;27;45520;-72
2022/10/28 08:00:03;;;;;;;;;6.75;5.25;;;;;21.57;58.03;-19782.53;4995875;27;45417;-72
2022/10/28 08:02:29;;;;;;;;;7.00;3.50;;;;;21.59;57.81;-19783.06;4995845;27;45432;-72
2022/10/28 08:04:55;;;;;;;;;6.50;4.00;;;;;21.74;57.85;-19787.03;4995726;27;47172;-73
2022/10/28 08:07:21;;;;;;;;;2.50;2.50;;;;;21.51;57.70;-19781.06;4994730;27;45298;-72
2022/10/28 08:09:47;;;;;;;;;6.75;4.50;;;;;21.84;57.39;-19789.56;4996057;27;45361;-72
2022/10/28 08:12:13;;;;;;;;;4.50;4.00;;;;;21.92;57.26;-19791.69;4994690;27;45435;-72
2022/10/28 08:14:39;;;;;;;;;3.25;3.25;;;;;21.96;57.31;-19792.78;4995779;27;46631;-73
2022/10/28 08:17:05;;;;;;;;;6.25;4.75;;;;;22.00;57.47;-19793.84;4995604;27;45397;-73
2022/10/28 08:19:30;;;;;;;;;4.25;3.00;;;;;22.08;56.87;-19795.97;4993337;28;45298;-73
2022/10/28 08:21:56;;;;;;;;;6.00;4.75;;;;;21.80;56.65;-19788.66;5051486;27;45488;-72
2022/10/28 08:24:22;;;;;;;;;3.50;3.50;;;;;22.03;56.55;-19794.50;4994010;27;46265;-72
2022/10/28 08:26:47;;;;;;;;;4.00;3.00;;;;;22.25;56.37;-19800.22;4995600;27;45433;-72
2022/10/28 08:29:13;;;;;;;;;7.00;4.00;;;;;22.23;56.82;-19799.81;4995545;27;45322;-73
2022/10/28 08:31:38;;;;;;;;;3.75;3.75;;;;;22.38;56.43;-19803.69;4994435;27;45360;-72
2022/10/28 08:34:05;;;;;;;;;4.25;3.00;;;;;22.45;56.18;-19805.53;4995498;27;45985;-73
2022/10/28 08:36:30;;;;;;;;;5.25;5.25;;;;;22.51;56.50;-19807.13;4995084;27;45329;-73
2022/10/28 08:38:58;;;;;;;;;3.25;3.00;;;;;22.47;56.11;-19806.06;4995536;27;45336;-73
2022/10/28 08:41:47;;;;;;;;;4.25;4.00;;;;;22.63;56.13;-19810.06;4978020;28;45425;-73
2022/10/28 08:44:31;;;;;;;;;5.25;5.25;;;;;;;;4995473;27;45413;-72
2022/10/28 08:46:59;;;;;;;;;4.50;3.75;;;;;22.74;56.35;-19812.97;4994683;27;45462;-70
2022/10/28 08:49:26;;;;;;;;;6.00;4.00;;;;;22.80;55.96;-19814.56;4995202;27;45424;-71
2022/10/28 08:52:01;;;;;;;;;6.75;4.00;;;;;22.84;55.89;-19815.50;4995600;27;45441;-71
2022/10/28 08:54:35;;;;;;;;;5.75;4.00;;;;;22.92;55.46;-19817.75;4995271;27;46468;-71
2022/10/28 08:57:05;;;;;;;;;6.75;3.25;;;;;22.96;55.08;-19818.81;4993591;27;45507;-70
2022/10/28 08:59:40;;;;;;;;;6.50;5.00;;;;;22.99;55.15;-19819.50;4974363;28;45491;-71
2022/10/28 09:02:21;;;;;;;;;6.00;5.00;;;;;23.01;55.36;-19820.03;4990913;27;45342;-71
2022/10/28 09:04:53;;;;;;;;;2.25;2.25;;;;;22.97;55.43;-19818.97;4977193;28;47080;-71
2022/10/28 09:07:21;;;;;;;;;4.00;4.00;;;;;23.13;54.91;-19823.09;4995280;27;45354;-70
2022/10/28 09:09:48;;;;;;;;;4.75;3.50;;;;;23.16;55.13;-19823.88;4995251;27;45379;-71
2022/10/28 09:12:35;;;;;;;;;3.25;3.25;;;;;23.21;55.42;-19825.06;4981656;27;45306;-71
2022/10/28 09:15:23;;;;;;;;;4.25;4.25;;;;;23.28;54.70;-19826.94;4994857;27;46193;-71
2022/10/28 09:18:04;;;;;;;;;7.00;5.00;;;;;23.36;54.93;-19829.19;4994564;27;45381;-70
2022/10/28 09:20:43;;;;;;;;;6.75;5.75;;;;;23.39;54.98;-19830.00;4995036;27;45394;-71
2022/10/28 09:23:20;;;;;;;;;6.75;4.00;;;;;23.47;54.58;-19831.97;4982166;28;45465;-71
2022/10/28 09:26:23;;;;;;;;;7.00;4.00;;;;;23.54;54.96;-19833.69;4995523;27;46197;-71
2022/10/28 09:29:16;;;;;;;;;5.33;4.00;;;;;23.58;54.62;-19834.75;5018354;28;45362;-71
2022/10/28 09:31:47;;;;;;;;;6.00;5.00;;;;;23.63;54.39;-19836.09;4993647;27;45432;-71
2022/10/28 09:34:18;;;;;;;;;5.00;5.00;;;;;23.67;54.44;-19837.16;4995013;27;45367;-71
2022/10/28 09:36:52;;;;;;;;;10.00;6.00;;;;;23.59;54.31;-19835.16;4976887;27;48538;-70
2022/10/28 09:39:23;;;;;;;;;6.50;4.50;;;;;23.85;54.57;-19841.81;4994931;27;45445;-70
2022/10/28 09:41:49;;;;;;;;;4.33;4.33;;;;;23.91;54.11;-19843.41;4994497;27;45362;-70
2022/10/28 09:44:47;;;;;;;;;6.33;4.67;;;;;24.02;54.16;-19846.31;4995128;27;45374;-71
2022/10/28 09:47:21;;;;;;;;;6.00;5.00;;;;;23.91;53.98;-19843.25;4994330;27;47493;-70
2022/10/28 09:49:50;;;;;;;;;7.00;4.33;;;;;24.10;54.16;-19848.31;5056875;27;45402;-71
2022/10/28 09:52:22;;;;;;;;;7.67;6.00;;;;;24.30;53.30;-19853.47;5002097;27;45386;-71
2022/10/28 09:54:52;;;;;;;;;4.33;4.33;;;;;24.40;53.64;-19856.00;4994967;27;45753;-71
2022/10/28 09:57:19;;;;;;;;;6.67;5.33;;;;;24.52;53.52;-19859.19;4992996;27;46198;-71
2022/10/28 09:59:45;;;;;;;;;4.00;4.00;;;;;24.61;53.33;-19861.44;4994509;27;45297;-71
2022/10/28 10:02:23;;;;;;;;;8.00;5.33;;;;;24.62;52.90;-19861.84;4994169;27;45513;-70
2022/10/28 10:04:49;;;;;;;;;7.33;5.00;;;;;24.63;52.92;-19862.09;4994853;27;45383;-71
2022/10/28 10:07:29;;;;;;;;;7.00;4.50;;;;;24.53;53.22;-19859.31;4994313;27;45680;-71
2022/10/28 10:09:56;;;;;;;;;7.33;7.33;;;;;24.98;52.58;-19870.97;4994382;28;45488;-72
2022/10/28 10:12:21;;;;;;;;;6.67;5.67;;;;;25.07;51.99;-19873.34;5066879;27;45526;-72
2022/10/28 10:14:49;;;;;;;;;8.25;4.75;;;;;25.16;51.65;-19875.75;4993171;28;45645;-72
2022/10/28 10:17:19;;;;;;;;;7.50;5.00;;;;;25.22;51.77;-19877.34;4994017;27;46110;-72
2022/10/28 10:20:21;;;;;;;;;7.50;5.00;;;;;25.22;51.60;-19877.34;4994016;27;45461;-73
2022/10/28 10:22:48;;;;;;;;;8.75;5.25;;;;;25.45;51.59;-19883.16;4992772;27;45424;-72
2022/10/28 10:25:16;;;;;;;;;5.00;5.00;;;;;25.51;51.71;-19884.63;4994595;28;45492;-73
2022/10/28 10:27:49;;;;;;;;;3.50;3.50;;;;;25.48;51.65;-19884.09;4976049;28;48588;-71
2022/10/28 10:30:21;;;;;;;;;6.25;3.25;;;;;25.46;51.50;-19883.44;4994059;28;45392;-71
2022/10/28 10:32:47;;;;;;;;;6.00;6.00;;;;;25.24;51.09;-19877.88;4993827;27;45519;-71
2022/10/28 10:35:12;;;;;;;;;5.67;4.00;;;;;25.51;51.18;-19884.63;4994081;27;45404;-71
2022/10/28 10:37:43;;;;;;;;;6.25;6.00;;;;;25.59;51.48;-19886.72;5046052;27;46300;-71
2022/10/28 10:40:21;;;;;;;;;8.75;5.50;;;;;25.61;51.24;-19887.41;5007493;27;46506;-70
2022/10/28 10:42:46;;;;;;;;;7.50;5.25;;;;;25.71;51.41;-19889.91;4980975;28;45481;-71
2022/10/28 10:45:24;;;;;;;;;6.50;5.00;;;;;25.63;51.29;-19887.78;5005482;27;45440;-71
2022/10/28 10:48:15;;;;;;;;;15.67;15.33;;;;;25.77;51.25;-19891.38;5019997;27;45428;-71
2022/10/28 10:50:43;;;;;;;;;12.00;10.33;;;;;25.86;51.85;-19893.75;4996554;27;45440;-71
2022/10/28 10:53:30;;;;;;;;;7.25;4.25;;;;;25.89;51.35;-19894.69;5004151;27;45533;-71
2022/10/28 10:56:25;;;;;;;;;6.00;4.25;;;;;25.97;51.22;-19896.66;4996955;28;45490;-71
2022/10/28 10:58:53;;;;;;;;;9.00;5.00;;;;;26.02;51.38;-19898.00;4999964;27;45891;-71
2022/10/28 11:01:22;;;;;;;;;9.33;5.00;;;;;26.07;50.69;-19899.31;4988358;27;45813;-76
2022/10/28 11:03:57;;;;;;;;;8.00;5.67;;;;;26.02;50.75;-19898.00;4989078;27;45296;-72
2022/10/28 11:06:26;;;;;;;;;7.33;7.00;;;;;26.08;51.08;-19899.44;4994015;27;45451;-84
2022/10/28 11:08:57;;;;;;;;;5.75;5.75;;;;;26.32;51.04;-19905.66;4981067;27;45709;-79
2022/10/28 11:11:34;;;;;;;;;7.75;6.00;;;;;26.62;50.76;-19913.47;5000713;27;45382;-86
2022/10/28 11:14:04;;;;;;;;;4.00;4.00;;;;;26.81;49.73;-19918.22;5007734;27;45424;-86
2022/10/28 11:16:29;;;;;;;;;4.50;4.25;;;;;26.82;49.34;-19918.63;4999289;27;45452;-83
2022/10/28 11:18:55;;;;;;;;;4.00;4.00;;;;;26.86;48.96;-19919.53;4996450;27;46094;-82
2022/10/28 11:21:20;;;;;;;;;9.75;5.25;;;;;27.14;49.32;-19926.94;4996653;27;45356;-74
2022/10/28 11:24:01;;;;;;;;;5.00;4.50;;;;;27.81;48.21;-19944.09;4978652;28;45482;-74
2022/10/28 11:26:29;;;;;;;;;6.00;6.00;;;;;27.79;47.51;-19943.56;4995667;27;45565;-75
2022/10/28 11:29:13;;;;;;;;;7.50;6.75;;;;;28.02;47.80;-19949.38;4996237;27;45432;-74
2022/10/28 11:32:07;;;;;;;;;5.00;5.00;;;;;27.95;47.78;-19947.78;4994732;27;45394;-76
2022/10/28 11:34:32;;;;;;;;;8.25;5.25;;;;;27.94;47.80;-19947.41;5000066;27;45335;-76
2022/10/28 11:37:28;;;;;;;;;7.00;4.25;;;;;27.89;48.11;-19946.09;4996513;27;45388;-74
2022/10/28 11:40:06;;;;;;;;;4.00;4.00;;;;;28.01;48.27;-19949.13;4978504;27;46752;-87